Event Log

Records: 353,929 Pagina: 14065 / 14158
CSV
ID Machine Gebeurtenis Tijd Uren Service Status USB ID
2327 60-039A Generator Over Volts Warning 09-08-2024 09:19:46 1524 -Niet ingesteld 2592996E7DD
2328 40-042XAI-S5 Generator Under Volts Warning 09-08-2024 09:18:56 21 -Niet ingesteld 6D2A725CBF
2325 40-042XAI-S5 Power Door Opened Warning 09-08-2024 09:15:25 21 -Niet ingesteld 6D2A725CBF
2340 60-044A Engine Start 09-08-2024 09:14:57 3614 -Niet ingesteld 25929A5FDDB
2326 40-042XAI-S5 Engine Start 09-08-2024 09:14:39 21 -Niet ingesteld 6D2A725CBF
2323 60-032 XAS MSC Failure Warning 09-08-2024 09:02:58 7958 -Niet ingesteld 6E23CF207B
2324 100-045 XASI Engine Stopped 09-08-2024 09:02:05 4334 -Niet ingesteld 6B2866FE6F
2322 40-044XAI-S5 Engine Start 09-08-2024 08:43:05 82 -Niet ingesteld 25A2A752B7A
2321 30-006 A Battery Voltage 09-08-2024 08:37:06 6425 -Niet ingesteld 6924CAC18B
2320 100-068XAB-S5 Engine Start 09-08-2024 08:16:40 529 -Niet ingesteld 25A2A752982
2318 150-003 AI Battery Voltage 09-08-2024 07:23:05 16139 -Niet ingesteld 6D23884754
2317 150-015 XAS Engine Stopped 09-08-2024 07:18:05 15763 -Niet ingesteld 67200F3432
2316 150-015 XAS Engine Start 09-08-2024 07:03:07 15763 -Niet ingesteld 67200F3432
2314 300-016XASB-S5 ECU Lamp 09-08-2024 07:02:46 672 -Niet ingesteld 6E2CEFDBE7
2315 300-016XASB-S5 Engine Stopped 09-08-2024 07:02:25 672 -Niet ingesteld 6E2CEFDBE7
2319 OC004 Engine Stopped 09-08-2024 06:58:08 6647 -Niet ingesteld 6D23E1F877
2313 40-030A Generator Over Current Warning 09-08-2024 06:39:55 3137 -Niet ingesteld 6C26180CA7
2311 40-028A Generator Under Frequency Warning 09-08-2024 06:36:03 5356 -Niet ingesteld 2592762C8D7
2312 40-028A Battery Voltage 09-08-2024 06:35:37 5356 -Niet ingesteld 2592762C8D7
2310 OC004 Battery Voltage 09-08-2024 06:34:24 6647 -Niet ingesteld 6D23E1F877
2307 40-028A Engine Stopped 09-08-2024 06:33:27 5356 -Niet ingesteld 2592762C8D7
2308 40-028A Generator Under Frequency Shutdown 09-08-2024 06:33:21 5356 -Niet ingesteld 2592762C8D7
2309 40-028A Battery Voltage 09-08-2024 06:32:55 5356 -Niet ingesteld 2592762C8D7
2306 250-005 XASI Engine Stopped 09-08-2024 05:59:13 1397 -Niet ingesteld 6E236094D1
2304 250-004 XASI Engine Stopped 09-08-2024 05:58:40 2035 -Niet ingesteld 6E233B6970
351,601–351,625 van 353,929